Xin Dan Dong — BPBY — position and weather

sailwx.info

Track history (hours):
 
Tides and Currents Weather Stations Pressure Air Temp Water Temp Dewpoint Dewpoint Depression Visibility Wind Speed Wind Dir Waves Ship Positions

Xin Dan Dong

Last reported at 2018-Apr-22 02:09 UTC. Time now 2018-Apr-22 16:16 UTC.
Position N 22°26' E 115°51'.

Length 263 m; draft 12.8 m.

Type: Ship. MMSI: 413153000.

Date/timePositionNaut miles runAvg speedWind from/ knotsBaromVisibWave heightAir tempDewpointWater temp
2018-Apr-22 02:09N 22°26' E 115°51'212.6
2018-Apr-22 02:00N 22°26' E 115°53'612.5
2018-Apr-22 01:30N 22°27' E 115°60'612.4
2018-Apr-22 01:00N 22°29' E 116°06'612.5
2018-Apr-22 00:30N 22°31' E 116°13'612.7
2018-Apr-22 00:00N 22°33' E 116°19'712.7
2018-Apr-21 23:30N 22°37' E 116°25'612.5
2018-Apr-21 22:59N 22°39' E 116°31'612.5
2018-Apr-21 22:31N 22°41' E 116°37'612.6
2018-Apr-21 22:00N 22°45' E 116°43'612.6
2018-Apr-21 21:30N 22°49' E 116°48'612.4
2018-Apr-21 21:00N 22°53' E 116°54'612.2
2018-Apr-21 20:30N 22°56' E 116°59'612.1
2018-Apr-21 20:00N 23°00' E 117°04'611.8
2018-Apr-21 19:30N 23°04' E 117°09'611.4
2018-Apr-21 18:59N 23°07' E 117°14'611.3
2018-Apr-21 18:30N 23°10' E 117°19'511.2
2018-Apr-21 18:00N 23°14' E 117°24'611.2
2018-Apr-21 17:30N 23°18' E 117°28'611.5
2018-Apr-21 17:00N 23°22' E 117°33'511.2
2018-Apr-21 16:30N 23°25' E 117°37'611.2
2018-Apr-21 15:58N 23°29' E 117°42'511.4
2018-Apr-21 15:30N 23°32' E 117°47'611.5
2018-Apr-21 15:00N 23°36' E 117°52'611.7
2018-Apr-21 14:30N 23°39' E 117°57'611.7
2018-Apr-21 14:00N 23°44' E 118°01'612.2
2018-Apr-21 13:30N 23°48' E 118°06'612.2
2018-Apr-21 13:00N 23°52' E 118°12'612.5
2018-Apr-21 12:30N 23°56' E 118°16'612.5
2018-Apr-21 12:00N 24°00' E 118°21'612.6
2018-Apr-21 11:30N 24°05' E 118°26'612.7
2018-Apr-21 11:00N 24°09' E 118°31'612.8
2018-Apr-21 10:30N 24°13' E 118°37'612.9
2018-Apr-21 10:00N 24°17' E 118°43'613.0
2018-Apr-21 09:30N 24°21' E 118°48'612.9
2018-Apr-21 09:00N 24°26' E 118°53'812.9
2018-Apr-21 08:25N 24°31' E 118°59'712.8
2018-Apr-21 07:53N 24°35' E 119°05'512.9
2018-Apr-21 07:30N 24°38' E 119°09'912.5
2018-Apr-21 06:49N 24°44' E 119°16'512.6
2018-Apr-21 06:25N 24°47' E 119°20'1112.4
2018-Apr-21 05:33N 24°54' E 119°29'312.2
2018-Apr-21 05:18N 24°56' E 119°32'40512.1
2018-Apr-19 19:49N 30°50' E 123°16'612.1
2018-Apr-19 19:18N 30°56' E 123°16'611.7
2018-Apr-19 18:49N 31°02' E 123°16'411.4
2018-Apr-19 18:29N 31°05' E 123°15'1410.9
2018-Apr-19 17:13N 31°19' E 123°17'311.0
2018-Apr-19 16:58N 31°22' E 123°17'510.7
2018-Apr-19 16:30N 31°27' E 123°18'510.5
2018-Apr-19 16:00N 31°32' E 123°18'510.7
2018-Apr-19 15:30N 31°37' E 123°16'610.7
2018-Apr-19 14:55N 31°43' E 123°13'511.0
2018-Apr-19 14:27N 31°48' E 123°12'712.2
2018-Apr-19 13:53N 31°55' E 123°12'512.7
2018-Apr-19 13:29N 31°60' E 123°11'713.2
2018-Apr-19 12:57N 32°07' E 123°10'713.9
2018-Apr-19 12:27N 32°14' E 123°10'  
2018-Apr-15 21:32N 31°05' E 122°38'214.8
2018-Apr-15 21:23N 31°05' E 122°35'813.5
2018-Apr-15 20:50N 31°06' E 122°27'3 9.0
2018-Apr-15 20:30N 31°06' E 122°23'713.2
2018-Apr-15 20:00N 31°08' E 122°16'714.7
2018-Apr-15 19:30N 31°12' E 122°09'814.4
2018-Apr-15 18:59N 31°15' E 122°00'713.9
2018-Apr-15 18:30N 31°16' E 121°53'612.5
2018-Apr-15 18:00N 31°18' E 121°46'510.1
2018-Apr-15 17:29N 31°20' E 121°41'3 5.8
2018-Apr-15 16:58N 31°22' E 121°38'3 5.3
2018-Apr-15 16:28N 31°23' E 121°35'3 6.0
2018-Apr-15 16:00N 31°24' E 121°32'5 7.7
2018-Apr-15 15:25N 31°27' E 121°28'3 8.3
2018-Apr-15 15:00N 31°30' E 121°25'611.4
2018-Apr-15 14:30N 31°33' E 121°20'713.4
2018-Apr-15 14:00N 31°38' E 121°15'2 1.2
2018-Apr-15 12:43N 31°39' E 121°13'0 0.0
2018-Apr-15 12:25N 31°39' E 121°13'0 0.0
2018-Apr-15 11:19N 31°39' E 121°13'0 0.0
2018-Apr-15 10:55N 31°39' E 121°13'0 0.0
2018-Apr-15 10:28N 31°39' E 121°13'0 0.0
2018-Apr-15 09:58N 31°39' E 121°13'0 0.0
2018-Apr-15 09:28N 31°39' E 121°13'0 0.0
2018-Apr-15 08:58N 31°39' E 121°13'0 0.0
2018-Apr-15 08:28N 31°39' E 121°13'0 0.0
2018-Apr-15 07:58N 31°39' E 121°13'0 0.0
2018-Apr-15 07:28N 31°39' E 121°13'0 0.0
2018-Apr-15 06:55N 31°39' E 121°13'0 0.0
2018-Apr-15 06:29N 31°39' E 121°13'0 0.8
2018-Apr-15 06:00N 31°39' E 121°13'3 5.9
2018-Apr-15 05:30N 31°37' E 121°16'4 7.1
2018-Apr-15 05:00N 31°34' E 121°19'3 6.6
2018-Apr-15 04:30N 31°32' E 121°22'3 5.4
2018-Apr-15 04:00N 31°31' E 121°24'3 6.8
2018-Apr-15 03:30N 31°28' E 121°27'8 7.9
2018-Apr-15 02:33N 31°24' E 121°34'1 8.5
2018-Apr-15 02:29N 31°23' E 121°35'1120.4
2018-Apr-15 01:58N 31°18' E 121°46'4 7.2
2018-Apr-15 01:27N 31°17' E 121°50'4 9.2
2018-Apr-15 00:59N 31°16' E 121°55'3 6.4
2018-Apr-15 00:30N 31°15' E 121°58'3 6.7
2018-Apr-14 23:59N 31°14' E 122°02'4 9.1
2018-Apr-14 23:30N 31°13' E 122°07'4 8.5
2018-Apr-14 23:00N 31°11' E 122°11'610.7
2018-Apr-14 22:29N 31°07' E 122°16'  
2018-Apr-12 17:40N 24°52' E 119°24'1713.7
2018-Apr-12 16:26N 24°42' E 119°09'613.6
2018-Apr-12 16:00N 24°38' E 119°04'713.4
2018-Apr-12 15:30N 24°34' E 118°58'713.1
2018-Apr-12 15:00N 24°30' E 118°53'612.5
2018-Apr-12 14:30N 24°26' E 118°47'612.8
2018-Apr-12 14:00N 24°21' E 118°42'613.1
2018-Apr-12 13:30N 24°16' E 118°38'713.1
2018-Apr-12 13:00N 24°12' E 118°32'713.5
2018-Apr-12 12:30N 24°07' E 118°27'713.8
2018-Apr-12 12:00N 24°03' E 118°21'713.9
2018-Apr-12 11:30N 23°58' E 118°16'713.9
2018-Apr-12 11:00N 23°54' E 118°10'714.0
2018-Apr-12 10:30N 23°49' E 118°04'714.1
2018-Apr-12 10:00N 23°44' E 117°59'714.2
2018-Apr-12 09:30N 23°39' E 117°53'714.0
2018-Apr-12 09:00N 23°34' E 117°47'713.7
2018-Apr-12 08:30N 23°30' E 117°42'713.5
2018-Apr-12 08:00N 23°25' E 117°37'713.2
2018-Apr-12 07:30N 23°20' E 117°32'612.9
2018-Apr-12 07:00N 23°16' E 117°27'713.0
2018-Apr-12 06:29N 23°11' E 117°21'612.9
2018-Apr-12 06:00N 23°08' E 117°16'  
Track history (hours):
 
Tides and Currents Weather Stations Pressure Air Temp Water Temp Dewpoint Dewpoint Depression Visibility Wind Speed Wind Dir Waves Ship Positions

Xin Dan Dong

Last reported at 2018-Apr-22 02:09 UTC. Time now 2018-Apr-22 16:16 UTC.
Position N 22°26' E 115°51'.

Length 263 m; draft 12.8 m.

Type: Ship. MMSI: 413153000.

Date/timePositionNaut miles runAvg speedWind from/ knotsBaromVisibWave heightAir tempDewpointWater temp
2018-Apr-22 02:09N 22°26' E 115°51'212.6
2018-Apr-22 02:00N 22°26' E 115°53'612.5
2018-Apr-22 01:30N 22°27' E 115°60'612.4
2018-Apr-22 01:00N 22°29' E 116°06'612.5
2018-Apr-22 00:30N 22°31' E 116°13'612.7
2018-Apr-22 00:00N 22°33' E 116°19'712.7
2018-Apr-21 23:30N 22°37' E 116°25'612.5
2018-Apr-21 22:59N 22°39' E 116°31'612.5
2018-Apr-21 22:31N 22°41' E 116°37'612.6
2018-Apr-21 22:00N 22°45' E 116°43'612.6
2018-Apr-21 21:30N 22°49' E 116°48'612.4
2018-Apr-21 21:00N 22°53' E 116°54'612.2
2018-Apr-21 20:30N 22°56' E 116°59'612.1
2018-Apr-21 20:00N 23°00' E 117°04'611.8
2018-Apr-21 19:30N 23°04' E 117°09'611.4
2018-Apr-21 18:59N 23°07' E 117°14'611.3
2018-Apr-21 18:30N 23°10' E 117°19'511.2
2018-Apr-21 18:00N 23°14' E 117°24'611.2
2018-Apr-21 17:30N 23°18' E 117°28'611.5
2018-Apr-21 17:00N 23°22' E 117°33'511.2
2018-Apr-21 16:30N 23°25' E 117°37'611.2
2018-Apr-21 15:58N 23°29' E 117°42'511.4
2018-Apr-21 15:30N 23°32' E 117°47'611.5
2018-Apr-21 15:00N 23°36' E 117°52'611.7
2018-Apr-21 14:30N 23°39' E 117°57'611.7
2018-Apr-21 14:00N 23°44' E 118°01'612.2
2018-Apr-21 13:30N 23°48' E 118°06'612.2
2018-Apr-21 13:00N 23°52' E 118°12'612.5
2018-Apr-21 12:30N 23°56' E 118°16'612.5
2018-Apr-21 12:00N 24°00' E 118°21'612.6
2018-Apr-21 11:30N 24°05' E 118°26'612.7
2018-Apr-21 11:00N 24°09' E 118°31'612.8
2018-Apr-21 10:30N 24°13' E 118°37'612.9
2018-Apr-21 10:00N 24°17' E 118°43'613.0
2018-Apr-21 09:30N 24°21' E 118°48'612.9
2018-Apr-21 09:00N 24°26' E 118°53'812.9
2018-Apr-21 08:25N 24°31' E 118°59'712.8
2018-Apr-21 07:53N 24°35' E 119°05'512.9
2018-Apr-21 07:30N 24°38' E 119°09'912.5
2018-Apr-21 06:49N 24°44' E 119°16'512.6
2018-Apr-21 06:25N 24°47' E 119°20'1112.4
2018-Apr-21 05:33N 24°54' E 119°29'312.2
2018-Apr-21 05:18N 24°56' E 119°32'40512.1
2018-Apr-19 19:49N 30°50' E 123°16'612.1
2018-Apr-19 19:18N 30°56' E 123°16'611.7
2018-Apr-19 18:49N 31°02' E 123°16'411.4
2018-Apr-19 18:29N 31°05' E 123°15'1410.9
2018-Apr-19 17:13N 31°19' E 123°17'311.0
2018-Apr-19 16:58N 31°22' E 123°17'510.7
2018-Apr-19 16:30N 31°27' E 123°18'510.5
2018-Apr-19 16:00N 31°32' E 123°18'510.7
2018-Apr-19 15:30N 31°37' E 123°16'610.7
2018-Apr-19 14:55N 31°43' E 123°13'511.0
2018-Apr-19 14:27N 31°48' E 123°12'712.2
2018-Apr-19 13:53N 31°55' E 123°12'512.7
2018-Apr-19 13:29N 31°60' E 123°11'713.2
2018-Apr-19 12:57N 32°07' E 123°10'713.9
2018-Apr-19 12:27N 32°14' E 123°10'  
2018-Apr-15 21:32N 31°05' E 122°38'214.8
2018-Apr-15 21:23N 31°05' E 122°35'813.5
2018-Apr-15 20:50N 31°06' E 122°27'3 9.0
2018-Apr-15 20:30N 31°06' E 122°23'713.2
2018-Apr-15 20:00N 31°08' E 122°16'714.7
2018-Apr-15 19:30N 31°12' E 122°09'814.4
2018-Apr-15 18:59N 31°15' E 122°00'713.9
2018-Apr-15 18:30N 31°16' E 121°53'612.5
2018-Apr-15 18:00N 31°18' E 121°46'510.1
2018-Apr-15 17:29N 31°20' E 121°41'3 5.8
2018-Apr-15 16:58N 31°22' E 121°38'3 5.3
2018-Apr-15 16:28N 31°23' E 121°35'3 6.0
2018-Apr-15 16:00N 31°24' E 121°32'5 7.7
2018-Apr-15 15:25N 31°27' E 121°28'3 8.3
2018-Apr-15 15:00N 31°30' E 121°25'611.4
2018-Apr-15 14:30N 31°33' E 121°20'713.4
2018-Apr-15 14:00N 31°38' E 121°15'2 1.2
2018-Apr-15 12:43N 31°39' E 121°13'0 0.0
2018-Apr-15 12:25N 31°39' E 121°13'0 0.0
2018-Apr-15 11:19N 31°39' E 121°13'0 0.0
2018-Apr-15 10:55N 31°39' E 121°13'0 0.0
2018-Apr-15 10:28N 31°39' E 121°13'0 0.0
2018-Apr-15 09:58N 31°39' E 121°13'0 0.0
2018-Apr-15 09:28N 31°39' E 121°13'0 0.0
2018-Apr-15 08:58N 31°39' E 121°13'0 0.0
2018-Apr-15 08:28N 31°39' E 121°13'0 0.0
2018-Apr-15 07:58N 31°39' E 121°13'0 0.0
2018-Apr-15 07:28N 31°39' E 121°13'0 0.0
2018-Apr-15 06:55N 31°39' E 121°13'0 0.0
2018-Apr-15 06:29N 31°39' E 121°13'0 0.8
2018-Apr-15 06:00N 31°39' E 121°13'3 5.9
2018-Apr-15 05:30N 31°37' E 121°16'4 7.1
2018-Apr-15 05:00N 31°34' E 121°19'3 6.6
2018-Apr-15 04:30N 31°32' E 121°22'3 5.4
2018-Apr-15 04:00N 31°31' E 121°24'3 6.8
2018-Apr-15 03:30N 31°28' E 121°27'8 7.9
2018-Apr-15 02:33N 31°24' E 121°34'1 8.5
2018-Apr-15 02:29N 31°23' E 121°35'1120.4
2018-Apr-15 01:58N 31°18' E 121°46'4 7.2
2018-Apr-15 01:27N 31°17' E 121°50'4 9.2
2018-Apr-15 00:59N 31°16' E 121°55'3 6.4
2018-Apr-15 00:30N 31°15' E 121°58'3 6.7
2018-Apr-14 23:59N 31°14' E 122°02'4 9.1
2018-Apr-14 23:30N 31°13' E 122°07'4 8.5
2018-Apr-14 23:00N 31°11' E 122°11'610.7
2018-Apr-14 22:29N 31°07' E 122°16'  
2018-Apr-12 17:40N 24°52' E 119°24'1713.7
2018-Apr-12 16:26N 24°42' E 119°09'613.6
2018-Apr-12 16:00N 24°38' E 119°04'713.4
2018-Apr-12 15:30N 24°34' E 118°58'713.1
2018-Apr-12 15:00N 24°30' E 118°53'612.5
2018-Apr-12 14:30N 24°26' E 118°47'612.8
2018-Apr-12 14:00N 24°21' E 118°42'613.1
2018-Apr-12 13:30N 24°16' E 118°38'713.1
2018-Apr-12 13:00N 24°12' E 118°32'713.5
2018-Apr-12 12:30N 24°07' E 118°27'713.8
2018-Apr-12 12:00N 24°03' E 118°21'713.9
2018-Apr-12 11:30N 23°58' E 118°16'713.9
2018-Apr-12 11:00N 23°54' E 118°10'714.0
2018-Apr-12 10:30N 23°49' E 118°04'714.1
2018-Apr-12 10:00N 23°44' E 117°59'714.2
2018-Apr-12 09:30N 23°39' E 117°53'714.0
2018-Apr-12 09:00N 23°34' E 117°47'713.7
2018-Apr-12 08:30N 23°30' E 117°42'713.5
2018-Apr-12 08:00N 23°25' E 117°37'713.2
2018-Apr-12 07:30N 23°20' E 117°32'612.9
2018-Apr-12 07:00N 23°16' E 117°27'713.0
2018-Apr-12 06:29N 23°11' E 117°21'612.9
2018-Apr-12 06:00N 23°08' E 117°16'  

Dump ship's entire track history